sensor_id;sensor_type;location;lat;lon;timestamp;P1;P2;P0
61760;PMS5003;47664;51.660;-0.100;2023-04-01T00:00:46;7;5;
61760;PMS5003;47664;51.660;-0.100;2023-04-01T00:03:13;8;7;
61760;PMS5003;47664;51.660;-0.100;2023-04-01T00:05:40;11;7;
61760;PMS5003;47664;51.660;-0.100;2023-04-01T00:08:07;7;6;
61760;PMS5003;47664;51.660;-0.100;2023-04-01T00:10:34;7;6;
61760;PMS5003;47664;51.660;-0.100;2023-04-01T00:13:03;7;7;
61760;PMS5003;47664;51.660;-0.100;2023-04-01T00:15:30;5;5;
61760;PMS5003;47664;51.660;-0.100;2023-04-01T00:17:57;6;4;
61760;PMS5003;47664;51.660;-0.100;2023-04-01T00:20:25;5;5;
61760;PMS5003;47664;51.660;-0.100;2023-04-01T00:22:52;11;9;
61760;PMS5003;47664;51.660;-0.100;2023-04-01T00:25:19;5;5;
61760;PMS5003;47664;51.660;-0.100;2023-04-01T00:27:46;6;5;
61760;PMS5003;47664;51.660;-0.100;2023-04-01T00:30:13;7;6;
61760;PMS5003;47664;51.660;-0.100;2023-04-01T00:32:41;7;4;
61760;PMS5003;47664;51.660;-0.100;2023-04-01T00:35:08;5;5;
61760;PMS5003;47664;51.660;-0.100;2023-04-01T00:37:36;7;7;
61760;PMS5003;47664;51.660;-0.100;2023-04-01T00:40:04;8;5;
61760;PMS5003;47664;51.660;-0.100;2023-04-01T00:42:33;7;6;
61760;PMS5003;47664;51.660;-0.100;2023-04-01T00:45:22;9;6;
61760;PMS5003;47664;51.660;-0.100;2023-04-01T00:47:53;8;7;
61760;PMS5003;47664;51.660;-0.100;2023-04-01T00:50:21;7;4;
61760;PMS5003;47664;51.660;-0.100;2023-04-01T00:52:51;7;6;
61760;PMS5003;47664;51.660;-0.100;2023-04-01T00:55:18;6;6;
61760;PMS5003;47664;51.660;-0.100;2023-04-01T00:57:49;6;4;
61760;PMS5003;47664;51.660;-0.100;2023-04-01T01:00:19;5;4;
61760;PMS5003;47664;51.660;-0.100;2023-04-01T01:02:47;5;5;
61760;PMS5003;47664;51.660;-0.100;2023-04-01T01:05:17;5;4;
61760;PMS5003;47664;51.660;-0.100;2023-04-01T01:07:51;6;4;
61760;PMS5003;47664;51.660;-0.100;2023-04-01T01:10:26;8;5;
61760;PMS5003;47664;51.660;-0.100;2023-04-01T01:13:00;4;4;
61760;PMS5003;47664;51.660;-0.100;2023-04-01T01:15:38;5;4;
61760;PMS5003;47664;51.660;-0.100;2023-04-01T01:18:12;7;5;
61760;PMS5003;47664;51.660;-0.100;2023-04-01T01:20:55;9;6;
61760;PMS5003;47664;51.660;-0.100;2023-04-01T01:24:05;4;4;
61760;PMS5003;47664;51.660;-0.100;2023-04-01T01:26:44;7;6;
61760;PMS5003;47664;51.660;-0.100;2023-04-01T01:29:27;6;4;
61760;PMS5003;47664;51.660;-0.100;2023-04-01T01:32:05;3;3;
61760;PMS5003;47664;51.660;-0.100;2023-04-01T01:34:39;8;7;
61760;PMS5003;47664;51.660;-0.100;2023-04-01T01:37:14;6;6;
61760;PMS5003;47664;51.660;-0.100;2023-04-01T01:39:46;7;7;
61760;PMS5003;47664;51.660;-0.100;2023-04-01T01:42:18;10;6;
61760;PMS5003;47664;51.660;-0.100;2023-04-01T01:44:47;6;6;
61760;PMS5003;47664;51.660;-0.100;2023-04-01T01:47:17;6;6;
61760;PMS5003;47664;51.660;-0.100;2023-04-01T01:49:47;8;6;
61760;PMS5003;47664;51.660;-0.100;2023-04-01T01:52:17;7;4;
61760;PMS5003;47664;51.660;-0.100;2023-04-01T01:54:47;9;7;
61760;PMS5003;47664;51.660;-0.100;2023-04-01T01:57:15;4;4;
61760;PMS5003;47664;51.660;-0.100;2023-04-01T01:59:45;7;7;
61760;PMS5003;47664;51.660;-0.100;2023-04-01T02:02:14;4;4;
61760;PMS5003;47664;51.660;-0.100;2023-04-01T02:04:43;4;4;
61760;PMS5003;47664;51.660;-0.100;2023-04-01T02:07:12;3;3;
61760;PMS5003;47664;51.660;-0.100;2023-04-01T02:09:45;6;5;
61760;PMS5003;47664;51.660;-0.100;2023-04-01T02:12:14;6;4;
61760;PMS5003;47664;51.660;-0.100;2023-04-01T02:14:43;5;5;
61760;PMS5003;47664;51.660;-0.100;2023-04-01T02:17:18;4;4;
61760;PMS5003;47664;51.660;-0.100;2023-04-01T02:19:48;5;4;
61760;PMS5003;47664;51.660;-0.100;2023-04-01T02:22:20;3;3;
61760;PMS5003;47664;51.660;-0.100;2023-04-01T02:24:50;7;5;
61760;PMS5003;47664;51.660;-0.100;2023-04-01T02:27:20;4;4;
61760;PMS5003;47664;51.660;-0.100;2023-04-01T02:29:47;4;4;
61760;PMS5003;47664;51.660;-0.100;2023-04-01T02:32:15;6;5;
61760;PMS5003;47664;51.660;-0.100;2023-04-01T02:34:44;8;6;
61760;PMS5003;47664;51.660;-0.100;2023-04-01T02:37:11;2;2;
61760;PMS5003;47664;51.660;-0.100;2023-04-01T02:39:40;7;5;
61760;PMS5003;47664;51.660;-0.100;2023-04-01T02:42:07;5;4;
61760;PMS5003;47664;51.660;-0.100;2023-04-01T02:44:34;3;3;
61760;PMS5003;47664;51.660;-0.100;2023-04-01T02:47:01;6;4;
61760;PMS5003;47664;51.660;-0.100;2023-04-01T02:49:29;5;5;
61760;PMS5003;47664;51.660;-0.100;2023-04-01T02:51:56;4;4;
61760;PMS5003;47664;51.660;-0.100;2023-04-01T02:54:23;5;5;
61760;PMS5003;47664;51.660;-0.100;2023-04-01T02:56:50;2;2;
61760;PMS5003;47664;51.660;-0.100;2023-04-01T02:59:17;5;4;
61760;PMS5003;47664;51.660;-0.100;2023-04-01T03:01:44;3;3;
61760;PMS5003;47664;51.660;-0.100;2023-04-01T03:04:11;1;1;
61760;PMS5003;47664;51.660;-0.100;2023-04-01T03:06:38;5;2;
61760;PMS5003;47664;51.660;-0.100;2023-04-01T03:09:05;0;0;
61760;PMS5003;47664;51.660;-0.100;2023-04-01T03:11:33;3;2;
61760;PMS5003;47664;51.660;-0.100;2023-04-01T03:14:00;4;2;
61760;PMS5003;47664;51.660;-0.100;2023-04-01T03:16:28;5;3;
61760;PMS5003;47664;51.660;-0.100;2023-04-01T03:18:55;3;2;
61760;PMS5003;47664;51.660;-0.100;2023-04-01T03:21:23;8;2;
61760;PMS5003;47664;51.660;-0.100;2023-04-01T03:23:50;2;2;
61760;PMS5003;47664;51.660;-0.100;2023-04-01T03:26:17;1;1;
61760;PMS5003;47664;51.660;-0.100;2023-04-01T03:28:45;1;1;
61760;PMS5003;47664;51.660;-0.100;2023-04-01T03:31:12;2;2;
61760;PMS5003;47664;51.660;-0.100;2023-04-01T03:33:40;2;2;
61760;PMS5003;47664;51.660;-0.100;2023-04-01T03:36:07;4;4;
61760;PMS5003;47664;51.660;-0.100;2023-04-01T03:38:35;4;3;
61760;PMS5003;47664;51.660;-0.100;2023-04-01T03:41:02;2;2;
61760;PMS5003;47664;51.660;-0.100;2023-04-01T03:43:30;2;2;
61760;PMS5003;47664;51.660;-0.100;2023-04-01T03:45:57;2;2;
61760;PMS5003;47664;51.660;-0.100;2023-04-01T03:48:24;2;2;
61760;PMS5003;47664;51.660;-0.100;2023-04-01T03:50:52;4;4;
61760;PMS5003;47664;51.660;-0.100;2023-04-01T03:53:19;3;3;
61760;PMS5003;47664;51.660;-0.100;2023-04-01T03:55:46;4;4;
61760;PMS5003;47664;51.660;-0.100;2023-04-01T03:58:13;4;4;
61760;PMS5003;47664;51.660;-0.100;2023-04-01T04:00:40;4;4;
61760;PMS5003;47664;51.660;-0.100;2023-04-01T04:03:07;4;2;
61760;PMS5003;47664;51.660;-0.100;2023-04-01T04:05:34;7;2;
61760;PMS5003;47664;51.660;-0.100;2023-04-01T04:08:01;3;2;
61760;PMS5003;47664;51.660;-0.100;2023-04-01T04:10:29;4;3;
61760;PMS5003;47664;51.660;-0.100;2023-04-01T04:12:56;3;2;
61760;PMS5003;47664;51.660;-0.100;2023-04-01T04:15:24;3;3;
61760;PMS5003;47664;51.660;-0.100;2023-04-01T04:17:51;2;2;
61760;PMS5003;47664;51.660;-0.100;2023-04-01T04:20:18;1;1;
61760;PMS5003;47664;51.660;-0.100;2023-04-01T04:22:45;1;1;
61760;PMS5003;47664;51.660;-0.100;2023-04-01T04:25:12;1;1;
61760;PMS5003;47664;51.660;-0.100;2023-04-01T04:27:39;4;2;
61760;PMS5003;47664;51.660;-0.100;2023-04-01T04:30:07;2;2;
61760;PMS5003;47664;51.660;-0.100;2023-04-01T04:32:35;2;1;
61760;PMS5003;47664;51.660;-0.100;2023-04-01T04:35:03;3;2;
61760;PMS5003;47664;51.660;-0.100;2023-04-01T04:37:31;2;2;
61760;PMS5003;47664;51.660;-0.100;2023-04-01T04:39:58;3;1;
61760;PMS5003;47664;51.660;-0.100;2023-04-01T04:42:26;3;2;
61760;PMS5003;47664;51.660;-0.100;2023-04-01T04:44:53;3;3;
61760;PMS5003;47664;51.660;-0.100;2023-04-01T04:47:20;4;4;
61760;PMS5003;47664;51.660;-0.100;2023-04-01T04:49:47;3;3;
61760;PMS5003;47664;51.660;-0.100;2023-04-01T04:52:14;1;1;
61760;PMS5003;47664;51.660;-0.100;2023-04-01T04:54:41;2;2;
61760;PMS5003;47664;51.660;-0.100;2023-04-01T04:57:08;2;2;
61760;PMS5003;47664;51.660;-0.100;2023-04-01T04:59:35;5;3;
61760;PMS5003;47664;51.660;-0.100;2023-04-01T05:02:02;3;3;
61760;PMS5003;47664;51.660;-0.100;2023-04-01T05:04:28;4;4;
61760;PMS5003;47664;51.660;-0.100;2023-04-01T05:06:56;7;5;
61760;PMS5003;47664;51.660;-0.100;2023-04-01T05:09:23;4;4;
61760;PMS5003;47664;51.660;-0.100;2023-04-01T05:11:50;4;4;
61760;PMS5003;47664;51.660;-0.100;2023-04-01T05:14:17;3;1;
61760;PMS5003;47664;51.660;-0.100;2023-04-01T05:16:44;7;4;
61760;PMS5003;47664;51.660;-0.100;2023-04-01T05:19:12;7;5;
61760;PMS5003;47664;51.660;-0.100;2023-04-01T05:21:39;5;4;
61760;PMS5003;47664;51.660;-0.100;2023-04-01T05:24:07;12;8;
61760;PMS5003;47664;51.660;-0.100;2023-04-01T05:26:35;7;7;
61760;PMS5003;47664;51.660;-0.100;2023-04-01T05:29:03;8;7;
61760;PMS5003;47664;51.660;-0.100;2023-04-01T05:31:30;5;5;
61760;PMS5003;47664;51.660;-0.100;2023-04-01T05:33:57;11;7;
61760;PMS5003;47664;51.660;-0.100;2023-04-01T05:36:24;5;5;
61760;PMS5003;47664;51.660;-0.100;2023-04-01T05:38:54;4;4;
61760;PMS5003;47664;51.660;-0.100;2023-04-01T05:41:22;8;8;
61760;PMS5003;47664;51.660;-0.100;2023-04-01T05:43:49;9;6;
61760;PMS5003;47664;51.660;-0.100;2023-04-01T05:46:16;8;6;
61760;PMS5003;47664;51.660;-0.100;2023-04-01T05:48:43;7;7;
61760;PMS5003;47664;51.660;-0.100;2023-04-01T05:51:12;7;5;
61760;PMS5003;47664;51.660;-0.100;2023-04-01T05:53:41;5;5;
61760;PMS5003;47664;51.660;-0.100;2023-04-01T05:56:08;6;6;
61760;PMS5003;47664;51.660;-0.100;2023-04-01T05:58:35;4;4;
61760;PMS5003;47664;51.660;-0.100;2023-04-01T06:01:03;6;6;
61760;PMS5003;47664;51.660;-0.100;2023-04-01T06:03:32;6;6;
61760;PMS5003;47664;51.660;-0.100;2023-04-01T06:06:00;8;7;
61760;PMS5003;47664;51.660;-0.100;2023-04-01T06:08:28;8;8;
61760;PMS5003;47664;51.660;-0.100;2023-04-01T06:11:01;8;8;
61760;PMS5003;47664;51.660;-0.100;2023-04-01T06:13:49;8;6;
61760;PMS5003;47664;51.660;-0.100;2023-04-01T06:16:30;5;5;
61760;PMS5003;47664;51.660;-0.100;2023-04-01T06:19:10;8;7;
61760;PMS5003;47664;51.660;-0.100;2023-04-01T06:22:02;10;7;
61760;PMS5003;47664;51.660;-0.100;2023-04-01T06:24:49;8;7;
61760;PMS5003;47664;51.660;-0.100;2023-04-01T06:27:31;11;9;
61760;PMS5003;47664;51.660;-0.100;2023-04-01T06:30:21;12;9;
61760;PMS5003;47664;51.660;-0.100;2023-04-01T06:33:02;10;8;
61760;PMS5003;47664;51.660;-0.100;2023-04-01T06:35:45;12;10;
61760;PMS5003;47664;51.660;-0.100;2023-04-01T06:38:35;6;6;
61760;PMS5003;47664;51.660;-0.100;2023-04-01T06:42:22;7;5;
61760;PMS5003;47664;51.660;-0.100;2023-04-01T06:45:03;9;8;
61760;PMS5003;47664;51.660;-0.100;2023-04-01T06:47:48;8;6;
61760;PMS5003;47664;51.660;-0.100;2023-04-01T06:50:29;9;7;
61760;PMS5003;47664;51.660;-0.100;2023-04-01T06:53:05;8;6;
61760;PMS5003;47664;51.660;-0.100;2023-04-01T06:55:40;4;4;
61760;PMS5003;47664;51.660;-0.100;2023-04-01T06:58:11;8;6;
61760;PMS5003;47664;51.660;-0.100;2023-04-01T07:00:46;12;9;
61760;PMS5003;47664;51.660;-0.100;2023-04-01T07:03:19;11;10;
61760;PMS5003;47664;51.660;-0.100;2023-04-01T07:05:49;9;9;
61760;PMS5003;47664;51.660;-0.100;2023-04-01T07:08:18;8;8;
61760;PMS5003;47664;51.660;-0.100;2023-04-01T07:10:50;11;8;
61760;PMS5003;47664;51.660;-0.100;2023-04-01T07:13:22;12;10;
61760;PMS5003;47664;51.660;-0.100;2023-04-01T07:15:57;14;14;
61760;PMS5003;47664;51.660;-0.100;2023-04-01T07:18:32;9;9;
61760;PMS5003;47664;51.660;-0.100;2023-04-01T07:21:05;11;10;
61760;PMS5003;47664;51.660;-0.100;2023-04-01T07:23:44;10;8;
61760;PMS5003;47664;51.660;-0.100;2023-04-01T07:26:15;11;9;
61760;PMS5003;47664;51.660;-0.100;2023-04-01T07:28:46;7;7;
61760;PMS5003;47664;51.660;-0.100;2023-04-01T07:31:16;11;11;
61760;PMS5003;47664;51.660;-0.100;2023-04-01T07:33:54;12;8;
61760;PMS5003;47664;51.660;-0.100;2023-04-01T07:36:29;13;11;
61760;PMS5003;47664;51.660;-0.100;2023-04-01T07:39:05;9;9;
61760;PMS5003;47664;51.660;-0.100;2023-04-01T07:41:41;10;8;
61760;PMS5003;47664;51.660;-0.100;2023-04-01T07:44:20;12;9;
61760;PMS5003;47664;51.660;-0.100;2023-04-01T07:46:58;11;10;
61760;PMS5003;47664;51.660;-0.100;2023-04-01T07:49:36;11;8;
61760;PMS5003;47664;51.660;-0.100;2023-04-01T07:52:15;13;10;
61760;PMS5003;47664;51.660;-0.100;2023-04-01T07:54:52;10;9;
61760;PMS5003;47664;51.660;-0.100;2023-04-01T07:57:28;13;9;
61760;PMS5003;47664;51.660;-0.100;2023-04-01T08:00:06;9;9;
61760;PMS5003;47664;51.660;-0.100;2023-04-01T08:02:46;15;12;
61760;PMS5003;47664;51.660;-0.100;2023-04-01T08:05:25;10;9;
61760;PMS5003;47664;51.660;-0.100;2023-04-01T08:07:57;13;10;
61760;PMS5003;47664;51.660;-0.100;2023-04-01T08:10:34;11;11;
61760;PMS5003;47664;51.660;-0.100;2023-04-01T08:13:09;11;7;
61760;PMS5003;47664;51.660;-0.100;2023-04-01T08:15:46;13;10;
61760;PMS5003;47664;51.660;-0.100;2023-04-01T08:18:26;9;7;
61760;PMS5003;47664;51.660;-0.100;2023-04-01T08:21:01;10;7;
61760;PMS5003;47664;51.660;-0.100;2023-04-01T08:23:33;6;6;
61760;PMS5003;47664;51.660;-0.100;2023-04-01T08:26:04;15;8;
61760;PMS5003;47664;51.660;-0.100;2023-04-01T08:28:37;10;8;
61760;PMS5003;47664;51.660;-0.100;2023-04-01T08:31:09;5;5;
61760;PMS5003;47664;51.660;-0.100;2023-04-01T08:33:40;8;6;
61760;PMS5003;47664;51.660;-0.100;2023-04-01T08:36:12;7;5;
61760;PMS5003;47664;51.660;-0.100;2023-04-01T08:38:43;7;7;
61760;PMS5003;47664;51.660;-0.100;2023-04-01T08:41:21;7;6;
61760;PMS5003;47664;51.660;-0.100;2023-04-01T08:44:11;9;6;
61760;PMS5003;47664;51.660;-0.100;2023-04-01T08:49:09;8;7;
61760;PMS5003;47664;51.660;-0.100;2023-04-01T08:52:07;12;8;
61760;PMS5003;47664;51.660;-0.100;2023-04-01T08:54:56;12;8;
61760;PMS5003;47664;51.660;-0.100;2023-04-01T08:57:46;7;5;
61760;PMS5003;47664;51.660;-0.100;2023-04-01T09:00:31;3;3;
61760;PMS5003;47664;51.660;-0.100;2023-04-01T09:03:37;1;1;
61760;PMS5003;47664;51.660;-0.100;2023-04-01T09:06:21;6;3;
61760;PMS5003;47664;51.660;-0.100;2023-04-01T09:09:02;3;3;
61760;PMS5003;47664;51.660;-0.100;2023-04-01T09:12:00;3;3;
61760;PMS5003;47664;51.660;-0.100;2023-04-01T09:14:45;4;4;
61760;PMS5003;47664;51.660;-0.100;2023-04-01T09:17:38;7;6;
61760;PMS5003;47664;51.660;-0.100;2023-04-01T09:20:19;7;5;
61760;PMS5003;47664;51.660;-0.100;2023-04-01T09:23:02;5;3;
61760;PMS5003;47664;51.660;-0.100;2023-04-01T09:25:51;4;4;
61760;PMS5003;47664;51.660;-0.100;2023-04-01T09:28:34;5;3;
61760;PMS5003;47664;51.660;-0.100;2023-04-01T09:31:14;4;3;
61760;PMS5003;47664;51.660;-0.100;2023-04-01T09:34:57;8;6;
61760;PMS5003;47664;51.660;-0.100;2023-04-01T09:37:43;7;7;
61760;PMS5003;47664;51.660;-0.100;2023-04-01T09:40:21;3;3;
61760;PMS5003;47664;51.660;-0.100;2023-04-01T09:43:06;7;5;
61760;PMS5003;47664;51.660;-0.100;2023-04-01T09:45:53;6;4;
61760;PMS5003;47664;51.660;-0.100;2023-04-01T09:48:38;11;8;
61760;PMS5003;47664;51.660;-0.100;2023-04-01T09:51:23;6;4;
61760;PMS5003;47664;51.660;-0.100;2023-04-01T09:54:04;8;6;
61760;PMS5003;47664;51.660;-0.100;2023-04-01T09:58:59;12;7;
61760;PMS5003;47664;51.660;-0.100;2023-04-01T10:01:45;7;3;
61760;PMS5003;47664;51.660;-0.100;2023-04-01T10:08:19;9;6;
61760;PMS5003;47664;51.660;-0.100;2023-04-01T10:11:08;12;8;
61760;PMS5003;47664;51.660;-0.100;2023-04-01T10:14:00;5;4;
61760;PMS5003;47664;51.660;-0.100;2023-04-01T10:16:51;8;7;
61760;PMS5003;47664;51.660;-0.100;2023-04-01T10:19:55;9;6;
61760;PMS5003;47664;51.660;-0.100;2023-04-01T10:23:02;12;9;
61760;PMS5003;47664;51.660;-0.100;2023-04-01T10:25:47;10;8;
61760;PMS5003;47664;51.660;-0.100;2023-04-01T10:28:38;9;9;
61760;PMS5003;47664;51.660;-0.100;2023-04-01T10:31:28;11;10;
61760;PMS5003;47664;51.660;-0.100;2023-04-01T10:34:35;11;11;
61760;PMS5003;47664;51.660;-0.100;2023-04-01T10:37:43;10;8;
61760;PMS5003;47664;51.660;-0.100;2023-04-01T10:40:35;10;8;
61760;PMS5003;47664;51.660;-0.100;2023-04-01T10:43:54;8;8;
61760;PMS5003;47664;51.660;-0.100;2023-04-01T10:46:44;17;14;
61760;PMS5003;47664;51.660;-0.100;2023-04-01T10:49:32;13;13;
61760;PMS5003;47664;51.660;-0.100;2023-04-01T10:52:34;16;8;
61760;PMS5003;47664;51.660;-0.100;2023-04-01T10:56:40;14;12;
61760;PMS5003;47664;51.660;-0.100;2023-04-01T11:00:22;17;14;
61760;PMS5003;47664;51.660;-0.100;2023-04-01T11:03:13;14;11;
61760;PMS5003;47664;51.660;-0.100;2023-04-01T11:06:11;14;11;
61760;PMS5003;47664;51.660;-0.100;2023-04-01T11:09:27;11;9;
61760;PMS5003;47664;51.660;-0.100;2023-04-01T11:14:32;9;8;
61760;PMS5003;47664;51.660;-0.100;2023-04-01T11:17:26;12;8;
61760;PMS5003;47664;51.660;-0.100;2023-04-01T11:20:10;12;8;
61760;PMS5003;47664;51.660;-0.100;2023-04-01T11:23:28;11;8;
61760;PMS5003;47664;51.660;-0.100;2023-04-01T11:26:06;10;7;
61760;PMS5003;47664;51.660;-0.100;2023-04-01T11:28:44;6;5;
61760;PMS5003;47664;51.660;-0.100;2023-04-01T11:31:58;12;10;
61760;PMS5003;47664;51.660;-0.100;2023-04-01T11:34:39;8;8;
61760;PMS5003;47664;51.660;-0.100;2023-04-01T11:37:22;9;6;
61760;PMS5003;47664;51.660;-0.100;2023-04-01T11:40:03;8;7;
61760;PMS5003;47664;51.660;-0.100;2023-04-01T11:42:43;6;5;
61760;PMS5003;47664;51.660;-0.100;2023-04-01T11:45:19;6;3;
61760;PMS5003;47664;51.660;-0.100;2023-04-01T11:47:58;6;4;
61760;PMS5003;47664;51.660;-0.100;2023-04-01T11:50:44;7;4;
61760;PMS5003;47664;51.660;-0.100;2023-04-01T11:53:31;10;6;
61760;PMS5003;47664;51.660;-0.100;2023-04-01T11:56:11;5;5;
61760;PMS5003;47664;51.660;-0.100;2023-04-01T11:58:59;10;6;
61760;PMS5003;47664;51.660;-0.100;2023-04-01T12:01:48;10;10;
61760;PMS5003;47664;51.660;-0.100;2023-04-01T12:04:31;7;5;
61760;PMS5003;47664;51.660;-0.100;2023-04-01T12:07:13;3;3;
61760;PMS5003;47664;51.660;-0.100;2023-04-01T12:09:50;7;7;
61760;PMS5003;47664;51.660;-0.100;2023-04-01T12:12:27;4;4;
61760;PMS5003;47664;51.660;-0.100;2023-04-01T12:15:11;4;4;
61760;PMS5003;47664;51.660;-0.100;2023-04-01T12:17:48;2;2;
61760;PMS5003;47664;51.660;-0.100;2023-04-01T12:20:24;3;3;
61760;PMS5003;47664;51.660;-0.100;2023-04-01T12:23:04;7;7;
61760;PMS5003;47664;51.660;-0.100;2023-04-01T12:25:55;7;3;
61760;PMS5003;47664;51.660;-0.100;2023-04-01T12:28:37;6;5;
61760;PMS5003;47664;51.660;-0.100;2023-04-01T12:31:19;7;4;
61760;PMS5003;47664;51.660;-0.100;2023-04-01T12:34:00;5;3;
61760;PMS5003;47664;51.660;-0.100;2023-04-01T12:36:42;5;5;
61760;PMS5003;47664;51.660;-0.100;2023-04-01T12:39:31;4;2;
61760;PMS5003;47664;51.660;-0.100;2023-04-01T12:42:14;5;5;
61760;PMS5003;47664;51.660;-0.100;2023-04-01T12:44:59;5;5;
61760;PMS5003;47664;51.660;-0.100;2023-04-01T12:47:44;5;3;
61760;PMS5003;47664;51.660;-0.100;2023-04-01T12:50:38;4;2;
61760;PMS5003;47664;51.660;-0.100;2023-04-01T12:53:21;5;3;
61760;PMS5003;47664;51.660;-0.100;2023-04-01T12:55:59;4;4;
61760;PMS5003;47664;51.660;-0.100;2023-04-01T12:58:41;9;8;
61760;PMS5003;47664;51.660;-0.100;2023-04-01T13:02:00;4;4;
61760;PMS5003;47664;51.660;-0.100;2023-04-01T13:04:41;3;3;
61760;PMS5003;47664;51.660;-0.100;2023-04-01T13:07:25;2;2;
61760;PMS5003;47664;51.660;-0.100;2023-04-01T13:10:07;4;4;
61760;PMS5003;47664;51.660;-0.100;2023-04-01T13:15:06;5;3;
61760;PMS5003;47664;51.660;-0.100;2023-04-01T13:17:46;3;2;
61760;PMS5003;47664;51.660;-0.100;2023-04-01T13:20:22;4;3;
61760;PMS5003;47664;51.660;-0.100;2023-04-01T13:23:01;4;3;
61760;PMS5003;47664;51.660;-0.100;2023-04-01T13:25:39;2;2;
61760;PMS5003;47664;51.660;-0.100;2023-04-01T13:28:15;4;3;
61760;PMS5003;47664;51.660;-0.100;2023-04-01T13:30:48;7;2;
61760;PMS5003;47664;51.660;-0.100;2023-04-01T13:33:25;2;2;
61760;PMS5003;47664;51.660;-0.100;2023-04-01T13:36:03;4;4;
61760;PMS5003;47664;51.660;-0.100;2023-04-01T13:38:48;4;4;
61760;PMS5003;47664;51.660;-0.100;2023-04-01T13:41:33;4;4;
61760;PMS5003;47664;51.660;-0.100;2023-04-01T13:44:13;7;4;
61760;PMS5003;47664;51.660;-0.100;2023-04-01T13:46:54;5;4;
61760;PMS5003;47664;51.660;-0.100;2023-04-01T13:49:41;9;7;
61760;PMS5003;47664;51.660;-0.100;2023-04-01T13:52:27;7;7;
61760;PMS5003;47664;51.660;-0.100;2023-04-01T13:55:19;9;6;
61760;PMS5003;47664;51.660;-0.100;2023-04-01T13:57:57;9;6;
61760;PMS5003;47664;51.660;-0.100;2023-04-01T14:00:43;8;7;
61760;PMS5003;47664;51.660;-0.100;2023-04-01T14:03:28;10;8;
61760;PMS5003;47664;51.660;-0.100;2023-04-01T14:06:12;6;5;
61760;PMS5003;47664;51.660;-0.100;2023-04-01T14:08:51;9;7;
61760;PMS5003;47664;51.660;-0.100;2023-04-01T14:11:39;6;5;
61760;PMS5003;47664;51.660;-0.100;2023-04-01T14:14:21;8;6;
61760;PMS5003;47664;51.660;-0.100;2023-04-01T14:17:07;6;6;
61760;PMS5003;47664;51.660;-0.100;2023-04-01T14:19:51;13;9;
61760;PMS5003;47664;51.660;-0.100;2023-04-01T14:22:34;13;8;
61760;PMS5003;47664;51.660;-0.100;2023-04-01T14:27:25;8;6;
61760;PMS5003;47664;51.660;-0.100;2023-04-01T14:30:12;7;7;
61760;PMS5003;47664;51.660;-0.100;2023-04-01T14:32:56;9;6;
61760;PMS5003;47664;51.660;-0.100;2023-04-01T14:35:33;7;7;
61760;PMS5003;47664;51.660;-0.100;2023-04-01T14:39:15;7;6;
61760;PMS5003;47664;51.660;-0.100;2023-04-01T14:41:58;7;7;
61760;PMS5003;47664;51.660;-0.100;2023-04-01T14:44:46;7;4;
61760;PMS5003;47664;51.660;-0.100;2023-04-01T14:47:34;6;6;
61760;PMS5003;47664;51.660;-0.100;2023-04-01T14:50:12;9;9;
61760;PMS5003;47664;51.660;-0.100;2023-04-01T14:52:44;10;10;
61760;PMS5003;47664;51.660;-0.100;2023-04-01T14:55:20;9;7;
61760;PMS5003;47664;51.660;-0.100;2023-04-01T14:58:07;9;7;
61760;PMS5003;47664;51.660;-0.100;2023-04-01T15:00:42;9;9;
61760;PMS5003;47664;51.660;-0.100;2023-04-01T15:03:22;9;9;
61760;PMS5003;47664;51.660;-0.100;2023-04-01T15:05:55;12;10;
61760;PMS5003;47664;51.660;-0.100;2023-04-01T15:08:41;12;12;
61760;PMS5003;47664;51.660;-0.100;2023-04-01T15:11:20;10;7;
61760;PMS5003;47664;51.660;-0.100;2023-04-01T15:14:01;9;7;
61760;PMS5003;47664;51.660;-0.100;2023-04-01T15:16:41;7;7;
61760;PMS5003;47664;51.660;-0.100;2023-04-01T15:19:22;14;9;
61760;PMS5003;47664;51.660;-0.100;2023-04-01T15:22:01;12;9;
61760;PMS5003;47664;51.660;-0.100;2023-04-01T15:24:44;10;6;
61760;PMS5003;47664;51.660;-0.100;2023-04-01T15:27:25;12;8;
61760;PMS5003;47664;51.660;-0.100;2023-04-01T15:30:06;8;6;
61760;PMS5003;47664;51.660;-0.100;2023-04-01T15:32:49;10;7;
61760;PMS5003;47664;51.660;-0.100;2023-04-01T15:35:30;9;6;
61760;PMS5003;47664;51.660;-0.100;2023-04-01T15:38:06;6;6;
61760;PMS5003;47664;51.660;-0.100;2023-04-01T15:40:43;17;9;
61760;PMS5003;47664;51.660;-0.100;2023-04-01T15:43:17;10;7;
61760;PMS5003;47664;51.660;-0.100;2023-04-01T15:45:58;9;9;
61760;PMS5003;47664;51.660;-0.100;2023-04-01T15:48:41;9;7;
61760;PMS5003;47664;51.660;-0.100;2023-04-01T15:51:28;11;8;
61760;PMS5003;47664;51.660;-0.100;2023-04-01T15:54:24;13;10;
61760;PMS5003;47664;51.660;-0.100;2023-04-01T15:57:03;15;8;
61760;PMS5003;47664;51.660;-0.100;2023-04-01T15:59:47;16;15;
61760;PMS5003;47664;51.660;-0.100;2023-04-01T16:02:29;13;10;
61760;PMS5003;47664;51.660;-0.100;2023-04-01T16:05:03;13;9;
61760;PMS5003;47664;51.660;-0.100;2023-04-01T16:07:43;10;9;
61760;PMS5003;47664;51.660;-0.100;2023-04-01T16:10:24;8;8;
61760;PMS5003;47664;51.660;-0.100;2023-04-01T16:13:04;10;7;
61760;PMS5003;47664;51.660;-0.100;2023-04-01T16:15:47;9;7;
61760;PMS5003;47664;51.660;-0.100;2023-04-01T16:18:24;11;9;
61760;PMS5003;47664;51.660;-0.100;2023-04-01T16:21:04;9;9;
61760;PMS5003;47664;51.660;-0.100;2023-04-01T16:23:37;7;7;
61760;PMS5003;47664;51.660;-0.100;2023-04-01T16:26:13;12;9;
61760;PMS5003;47664;51.660;-0.100;2023-04-01T16:28:48;7;6;
61760;PMS5003;47664;51.660;-0.100;2023-04-01T16:31:28;9;7;
61760;PMS5003;47664;51.660;-0.100;2023-04-01T16:34:02;6;3;
61760;PMS5003;47664;51.660;-0.100;2023-04-01T16:36:36;7;5;
61760;PMS5003;47664;51.660;-0.100;2023-04-01T16:39:18;8;7;
61760;PMS5003;47664;51.660;-0.100;2023-04-01T16:42:09;9;5;
61760;PMS5003;47664;51.660;-0.100;2023-04-01T16:44:48;8;8;
61760;PMS5003;47664;51.660;-0.100;2023-04-01T16:47:21;10;8;
61760;PMS5003;47664;51.660;-0.100;2023-04-01T16:49:51;6;6;
61760;PMS5003;47664;51.660;-0.100;2023-04-01T16:52:31;6;6;
61760;PMS5003;47664;51.660;-0.100;2023-04-01T16:55:12;5;4;
61760;PMS5003;47664;51.660;-0.100;2023-04-01T16:57:45;8;5;
61760;PMS5003;47664;51.660;-0.100;2023-04-01T17:00:17;5;5;
61760;PMS5003;47664;51.660;-0.100;2023-04-01T17:02:57;6;6;
61760;PMS5003;47664;51.660;-0.100;2023-04-01T17:05:37;7;6;
61760;PMS5003;47664;51.660;-0.100;2023-04-01T17:08:14;8;7;
61760;PMS5003;47664;51.660;-0.100;2023-04-01T17:10:53;9;7;
61760;PMS5003;47664;51.660;-0.100;2023-04-01T17:13:27;9;5;
61760;PMS5003;47664;51.660;-0.100;2023-04-01T17:16:04;10;6;
61760;PMS5003;47664;51.660;-0.100;2023-04-01T17:18:48;6;6;
61760;PMS5003;47664;51.660;-0.100;2023-04-01T17:21:38;6;6;
61760;PMS5003;47664;51.660;-0.100;2023-04-01T17:24:21;7;5;
61760;PMS5003;47664;51.660;-0.100;2023-04-01T17:26:59;7;7;
61760;PMS5003;47664;51.660;-0.100;2023-04-01T17:29:43;6;6;
61760;PMS5003;47664;51.660;-0.100;2023-04-01T17:32:29;8;7;
61760;PMS5003;47664;51.660;-0.100;2023-04-01T17:35:05;7;6;
61760;PMS5003;47664;51.660;-0.100;2023-04-01T17:37:41;7;5;
61760;PMS5003;47664;51.660;-0.100;2023-04-01T17:40:26;7;5;
61760;PMS5003;47664;51.660;-0.100;2023-04-01T17:43:06;5;5;
61760;PMS5003;47664;51.660;-0.100;2023-04-01T17:45:45;4;4;
61760;PMS5003;47664;51.660;-0.100;2023-04-01T17:48:18;5;5;
61760;PMS5003;47664;51.660;-0.100;2023-04-01T17:50:54;6;6;
61760;PMS5003;47664;51.660;-0.100;2023-04-01T17:53:36;6;4;
61760;PMS5003;47664;51.660;-0.100;2023-04-01T17:56:12;7;6;